sensor_id;sensor_type;location;lat;lon;timestamp;P1;durP1;ratioP1;P2;durP2;ratioP2
49131;SDS011;35149;51.196;6.204;2023-11-18T00:00:00;22.48;;;16.58;;
49131;SDS011;35149;51.196;6.204;2023-11-18T00:02:29;22.60;;;16.13;;
49131;SDS011;35149;51.196;6.204;2023-11-18T00:04:59;21.63;;;16.10;;
49131;SDS011;35149;51.196;6.204;2023-11-18T00:07:26;24.65;;;16.88;;
49131;SDS011;35149;51.196;6.204;2023-11-18T00:09:55;24.05;;;16.52;;
49131;SDS011;35149;51.196;6.204;2023-11-18T00:12:22;22.30;;;17.02;;
49131;SDS011;35149;51.196;6.204;2023-11-18T00:14:50;24.48;;;17.50;;
49131;SDS011;35149;51.196;6.204;2023-11-18T00:17:17;22.80;;;16.25;;
49131;SDS011;35149;51.196;6.204;2023-11-18T00:19:44;24.10;;;17.05;;
49131;SDS011;35149;51.196;6.204;2023-11-18T00:22:13;23.13;;;17.38;;
49131;SDS011;35149;51.196;6.204;2023-11-18T00:24:40;23.33;;;16.98;;
49131;SDS011;35149;51.196;6.204;2023-11-18T00:27:06;20.85;;;16.58;;
49131;SDS011;35149;51.196;6.204;2023-11-18T00:29:33;23.63;;;16.17;;
49131;SDS011;35149;51.196;6.204;2023-11-18T00:32:00;24.75;;;17.23;;
49131;SDS011;35149;51.196;6.204;2023-11-18T00:34:30;23.02;;;16.40;;
49131;SDS011;35149;51.196;6.204;2023-11-18T00:36:57;20.02;;;15.15;;
49131;SDS011;35149;51.196;6.204;2023-11-18T00:39:27;20.33;;;15.68;;
49131;SDS011;35149;51.196;6.204;2023-11-18T00:41:53;19.27;;;14.88;;
49131;SDS011;35149;51.196;6.204;2023-11-18T00:44:28;21.30;;;14.45;;
49131;SDS011;35149;51.196;6.204;2023-11-18T00:46:54;21.23;;;15.43;;
49131;SDS011;35149;51.196;6.204;2023-11-18T00:49:26;18.50;;;14.17;;
49131;SDS011;35149;51.196;6.204;2023-11-18T00:51:52;18.10;;;13.30;;
49131;SDS011;35149;51.196;6.204;2023-11-18T00:54:19;20.75;;;14.43;;
49131;SDS011;35149;51.196;6.204;2023-11-18T00:56:50;17.48;;;13.20;;
49131;SDS011;35149;51.196;6.204;2023-11-18T00:59:16;21.80;;;14.77;;
49131;SDS011;35149;51.196;6.204;2023-11-18T01:01:43;18.08;;;14.55;;
49131;SDS011;35149;51.196;6.204;2023-11-18T01:04:10;17.33;;;13.73;;
49131;SDS011;35149;51.196;6.204;2023-11-18T01:06:39;17.23;;;12.73;;
49131;SDS011;35149;51.196;6.204;2023-11-18T01:09:09;20.17;;;13.60;;
49131;SDS011;35149;51.196;6.204;2023-11-18T01:11:37;16.48;;;12.70;;
49131;SDS011;35149;51.196;6.204;2023-11-18T01:14:23;16.02;;;12.25;;
49131;SDS011;35149;51.196;6.204;2023-11-18T01:16:53;15.80;;;12.07;;
49131;SDS011;35149;51.196;6.204;2023-11-18T01:19:19;16.58;;;13.15;;
49131;SDS011;35149;51.196;6.204;2023-11-18T01:21:49;16.77;;;11.65;;
49131;SDS011;35149;51.196;6.204;2023-11-18T01:24:19;20.48;;;13.10;;
49131;SDS011;35149;51.196;6.204;2023-11-18T01:26:46;19.70;;;13.50;;
49131;SDS011;35149;51.196;6.204;2023-11-18T01:29:13;18.08;;;12.32;;
49131;SDS011;35149;51.196;6.204;2023-11-18T01:31:40;19.38;;;14.45;;
49131;SDS011;35149;51.196;6.204;2023-11-18T01:34:18;22.88;;;12.35;;
49131;SDS011;35149;51.196;6.204;2023-11-18T01:36:49;17.73;;;12.52;;
49131;SDS011;35149;51.196;6.204;2023-11-18T01:39:16;16.60;;;12.00;;
49131;SDS011;35149;51.196;6.204;2023-11-18T01:41:44;16.80;;;12.20;;
49131;SDS011;35149;51.196;6.204;2023-11-18T01:44:11;14.48;;;12.00;;
49131;SDS011;35149;51.196;6.204;2023-11-18T01:46:41;16.73;;;13.10;;
49131;SDS011;35149;51.196;6.204;2023-11-18T01:49:14;16.88;;;12.50;;
49131;SDS011;35149;51.196;6.204;2023-11-18T01:51:42;19.95;;;12.52;;
49131;SDS011;35149;51.196;6.204;2023-11-18T01:54:12;17.80;;;12.20;;
49131;SDS011;35149;51.196;6.204;2023-11-18T01:56:43;17.98;;;13.13;;
49131;SDS011;35149;51.196;6.204;2023-11-18T01:59:17;18.35;;;11.98;;
49131;SDS011;35149;51.196;6.204;2023-11-18T02:01:50;19.50;;;12.95;;
49131;SDS011;35149;51.196;6.204;2023-11-18T02:04:20;16.05;;;11.90;;
49131;SDS011;35149;51.196;6.204;2023-11-18T02:06:48;16.00;;;12.93;;
49131;SDS011;35149;51.196;6.204;2023-11-18T02:09:16;17.02;;;13.05;;
49131;SDS011;35149;51.196;6.204;2023-11-18T02:11:47;20.73;;;14.55;;
49131;SDS011;35149;51.196;6.204;2023-11-18T02:14:20;18.48;;;13.60;;
49131;SDS011;35149;51.196;6.204;2023-11-18T02:16:50;18.63;;;13.63;;
49131;SDS011;35149;51.196;6.204;2023-11-18T02:19:21;21.33;;;12.82;;
49131;SDS011;35149;51.196;6.204;2023-11-18T02:21:50;20.77;;;14.90;;
49131;SDS011;35149;51.196;6.204;2023-11-18T02:26:54;22.33;;;13.65;;
49131;SDS011;35149;51.196;6.204;2023-11-18T02:29:23;17.70;;;12.93;;
49131;SDS011;35149;51.196;6.204;2023-11-18T02:31:57;18.55;;;14.02;;
49131;SDS011;35149;51.196;6.204;2023-11-18T02:34:30;19.90;;;14.40;;
49131;SDS011;35149;51.196;6.204;2023-11-18T02:37:00;18.45;;;13.63;;
49131;SDS011;35149;51.196;6.204;2023-11-18T02:39:34;17.80;;;12.70;;
49131;SDS011;35149;51.196;6.204;2023-11-18T02:42:06;20.08;;;13.65;;
49131;SDS011;35149;51.196;6.204;2023-11-18T02:44:37;16.30;;;12.25;;
49131;SDS011;35149;51.196;6.204;2023-11-18T02:47:04;15.93;;;12.02;;
49131;SDS011;35149;51.196;6.204;2023-11-18T02:49:31;16.65;;;11.90;;
49131;SDS011;35149;51.196;6.204;2023-11-18T02:52:00;19.20;;;13.27;;
49131;SDS011;35149;51.196;6.204;2023-11-18T02:54:27;16.48;;;12.10;;
49131;SDS011;35149;51.196;6.204;2023-11-18T02:56:54;20.13;;;14.50;;
49131;SDS011;35149;51.196;6.204;2023-11-18T02:59:21;17.45;;;14.13;;
49131;SDS011;35149;51.196;6.204;2023-11-18T03:01:47;20.65;;;14.18;;
49131;SDS011;35149;51.196;6.204;2023-11-18T03:04:19;19.08;;;13.75;;
49131;SDS011;35149;51.196;6.204;2023-11-18T03:06:45;18.73;;;13.13;;
49131;SDS011;35149;51.196;6.204;2023-11-18T03:09:14;21.98;;;15.20;;
49131;SDS011;35149;51.196;6.204;2023-11-18T03:11:41;19.48;;;14.10;;
49131;SDS011;35149;51.196;6.204;2023-11-18T03:14:10;22.92;;;15.07;;
49131;SDS011;35149;51.196;6.204;2023-11-18T03:16:37;23.55;;;14.90;;
49131;SDS011;35149;51.196;6.204;2023-11-18T03:19:09;21.23;;;14.15;;
49131;SDS011;35149;51.196;6.204;2023-11-18T03:21:35;20.90;;;14.43;;
49131;SDS011;35149;51.196;6.204;2023-11-18T03:24:03;21.63;;;13.57;;
49131;SDS011;35149;51.196;6.204;2023-11-18T03:26:30;18.80;;;13.98;;
49131;SDS011;35149;51.196;6.204;2023-11-18T03:28:58;21.33;;;13.60;;
49131;SDS011;35149;51.196;6.204;2023-11-18T03:31:25;20.00;;;13.48;;
49131;SDS011;35149;51.196;6.204;2023-11-18T03:33:52;20.50;;;12.55;;
49131;SDS011;35149;51.196;6.204;2023-11-18T03:36:18;23.35;;;14.13;;
49131;SDS011;35149;51.196;6.204;2023-11-18T03:38:45;20.35;;;14.23;;
49131;SDS011;35149;51.196;6.204;2023-11-18T03:41:12;18.67;;;14.00;;
49131;SDS011;35149;51.196;6.204;2023-11-18T03:43:39;22.77;;;13.70;;
49131;SDS011;35149;51.196;6.204;2023-11-18T03:46:05;16.38;;;12.80;;
49131;SDS011;35149;51.196;6.204;2023-11-18T03:48:34;18.50;;;12.63;;
49131;SDS011;35149;51.196;6.204;2023-11-18T03:51:03;17.15;;;12.43;;
49131;SDS011;35149;51.196;6.204;2023-11-18T03:53:33;19.45;;;12.98;;
49131;SDS011;35149;51.196;6.204;2023-11-18T03:56:00;16.98;;;12.65;;
49131;SDS011;35149;51.196;6.204;2023-11-18T03:58:30;18.52;;;12.45;;
49131;SDS011;35149;51.196;6.204;2023-11-18T04:00:59;20.30;;;13.27;;
49131;SDS011;35149;51.196;6.204;2023-11-18T04:03:29;20.13;;;12.95;;
49131;SDS011;35149;51.196;6.204;2023-11-18T04:06:00;18.05;;;12.43;;
49131;SDS011;35149;51.196;6.204;2023-11-18T04:08:27;18.15;;;12.18;;
49131;SDS011;35149;51.196;6.204;2023-11-18T04:10:54;16.38;;;11.27;;
49131;SDS011;35149;51.196;6.204;2023-11-18T04:13:21;17.15;;;11.45;;
49131;SDS011;35149;51.196;6.204;2023-11-18T04:15:47;17.30;;;11.85;;
49131;SDS011;35149;51.196;6.204;2023-11-18T04:18:23;17.00;;;12.48;;
49131;SDS011;35149;51.196;6.204;2023-11-18T04:20:52;16.17;;;11.90;;
49131;SDS011;35149;51.196;6.204;2023-11-18T04:23:21;18.92;;;13.13;;
49131;SDS011;35149;51.196;6.204;2023-11-18T04:25:48;16.00;;;11.80;;
49131;SDS011;35149;51.196;6.204;2023-11-18T04:28:16;17.73;;;12.05;;
49131;SDS011;35149;51.196;6.204;2023-11-18T04:30:42;19.73;;;13.27;;
49131;SDS011;35149;51.196;6.204;2023-11-18T04:33:09;18.25;;;12.88;;
49131;SDS011;35149;51.196;6.204;2023-11-18T04:35:36;18.00;;;12.38;;
49131;SDS011;35149;51.196;6.204;2023-11-18T04:38:06;17.92;;;12.63;;
49131;SDS011;35149;51.196;6.204;2023-11-18T04:40:33;22.63;;;14.27;;
49131;SDS011;35149;51.196;6.204;2023-11-18T04:43:00;20.15;;;13.73;;
49131;SDS011;35149;51.196;6.204;2023-11-18T04:45:29;20.35;;;12.85;;
49131;SDS011;35149;51.196;6.204;2023-11-18T04:47:56;19.20;;;13.07;;
49131;SDS011;35149;51.196;6.204;2023-11-18T04:50:23;20.92;;;13.15;;
49131;SDS011;35149;51.196;6.204;2023-11-18T04:52:57;17.42;;;12.25;;
49131;SDS011;35149;51.196;6.204;2023-11-18T04:55:27;15.57;;;12.75;;
49131;SDS011;35149;51.196;6.204;2023-11-18T04:57:55;17.83;;;12.85;;
49131;SDS011;35149;51.196;6.204;2023-11-18T05:00:22;21.80;;;13.70;;
49131;SDS011;35149;51.196;6.204;2023-11-18T05:02:49;17.70;;;12.88;;
49131;SDS011;35149;51.196;6.204;2023-11-18T05:05:16;17.58;;;13.38;;
49131;SDS011;35149;51.196;6.204;2023-11-18T05:07:43;22.48;;;14.35;;
49131;SDS011;35149;51.196;6.204;2023-11-18T05:10:11;19.48;;;13.35;;
49131;SDS011;35149;51.196;6.204;2023-11-18T05:12:40;20.52;;;13.98;;
49131;SDS011;35149;51.196;6.204;2023-11-18T05:15:09;18.05;;;12.98;;
49131;SDS011;35149;51.196;6.204;2023-11-18T05:17:36;17.25;;;12.23;;
49131;SDS011;35149;51.196;6.204;2023-11-18T05:20:04;22.88;;;14.70;;
49131;SDS011;35149;51.196;6.204;2023-11-18T05:22:37;21.50;;;13.93;;
49131;SDS011;35149;51.196;6.204;2023-11-18T05:25:06;14.43;;;9.10;;
49131;SDS011;35149;51.196;6.204;2023-11-18T05:27:34;20.60;;;13.27;;
49131;SDS011;35149;51.196;6.204;2023-11-18T05:30:00;20.58;;;13.85;;
49131;SDS011;35149;51.196;6.204;2023-11-18T05:32:35;19.02;;;13.43;;
49131;SDS011;35149;51.196;6.204;2023-11-18T05:35:05;19.92;;;13.00;;
49131;SDS011;35149;51.196;6.204;2023-11-18T05:37:38;17.20;;;13.32;;
49131;SDS011;35149;51.196;6.204;2023-11-18T05:42:41;15.77;;;11.80;;
49131;SDS011;35149;51.196;6.204;2023-11-18T05:45:10;16.85;;;12.95;;
49131;SDS011;35149;51.196;6.204;2023-11-18T05:47:43;16.60;;;12.48;;
49131;SDS011;35149;51.196;6.204;2023-11-18T05:50:15;19.90;;;14.05;;
49131;SDS011;35149;51.196;6.204;2023-11-18T05:52:42;22.00;;;13.52;;
49131;SDS011;35149;51.196;6.204;2023-11-18T05:55:10;21.40;;;14.10;;
49131;SDS011;35149;51.196;6.204;2023-11-18T05:57:37;21.23;;;13.52;;
49131;SDS011;35149;51.196;6.204;2023-11-18T06:00:05;18.02;;;13.15;;
49131;SDS011;35149;51.196;6.204;2023-11-18T06:05:05;17.77;;;12.00;;
49131;SDS011;35149;51.196;6.204;2023-11-18T06:07:32;21.08;;;13.30;;
49131;SDS011;35149;51.196;6.204;2023-11-18T06:10:00;19.50;;;13.77;;
49131;SDS011;35149;51.196;6.204;2023-11-18T06:12:31;19.15;;;13.38;;
49131;SDS011;35149;51.196;6.204;2023-11-18T06:15:02;23.33;;;14.25;;
49131;SDS011;35149;51.196;6.204;2023-11-18T06:17:31;20.77;;;13.15;;
49131;SDS011;35149;51.196;6.204;2023-11-18T06:19:59;18.65;;;14.10;;
49131;SDS011;35149;51.196;6.204;2023-11-18T06:22:27;20.40;;;13.90;;
49131;SDS011;35149;51.196;6.204;2023-11-18T06:24:54;21.42;;;14.10;;
49131;SDS011;35149;51.196;6.204;2023-11-18T06:27:23;20.70;;;13.90;;
49131;SDS011;35149;51.196;6.204;2023-11-18T06:29:50;19.75;;;13.23;;
49131;SDS011;35149;51.196;6.204;2023-11-18T06:32:20;17.63;;;12.68;;
49131;SDS011;35149;51.196;6.204;2023-11-18T06:34:47;19.88;;;13.77;;
49131;SDS011;35149;51.196;6.204;2023-11-18T06:37:15;20.13;;;13.48;;
49131;SDS011;35149;51.196;6.204;2023-11-18T06:39:44;24.05;;;12.95;;
49131;SDS011;35149;51.196;6.204;2023-11-18T06:42:13;21.00;;;13.38;;
49131;SDS011;35149;51.196;6.204;2023-11-18T06:44:40;21.20;;;14.25;;
49131;SDS011;35149;51.196;6.204;2023-11-18T06:47:07;18.05;;;13.07;;
49131;SDS011;35149;51.196;6.204;2023-11-18T06:49:34;21.75;;;13.65;;
49131;SDS011;35149;51.196;6.204;2023-11-18T06:52:00;19.15;;;12.43;;
49131;SDS011;35149;51.196;6.204;2023-11-18T06:54:31;17.73;;;11.70;;
49131;SDS011;35149;51.196;6.204;2023-11-18T06:56:59;20.48;;;13.18;;
49131;SDS011;35149;51.196;6.204;2023-11-18T06:59:26;21.10;;;12.85;;
49131;SDS011;35149;51.196;6.204;2023-11-18T07:01:55;19.13;;;12.30;;
49131;SDS011;35149;51.196;6.204;2023-11-18T07:04:21;19.17;;;13.35;;
49131;SDS011;35149;51.196;6.204;2023-11-18T07:06:50;21.50;;;14.13;;
49131;SDS011;35149;51.196;6.204;2023-11-18T07:09:18;21.15;;;13.60;;
49131;SDS011;35149;51.196;6.204;2023-11-18T07:11:49;19.77;;;12.57;;
49131;SDS011;35149;51.196;6.204;2023-11-18T07:14:18;17.58;;;12.70;;
49131;SDS011;35149;51.196;6.204;2023-11-18T07:16:45;18.48;;;12.95;;
49131;SDS011;35149;51.196;6.204;2023-11-18T07:19:12;16.75;;;12.48;;
49131;SDS011;35149;51.196;6.204;2023-11-18T07:21:48;17.08;;;13.48;;
49131;SDS011;35149;51.196;6.204;2023-11-18T07:24:16;19.55;;;13.32;;
49131;SDS011;35149;51.196;6.204;2023-11-18T07:26:43;19.58;;;12.07;;
49131;SDS011;35149;51.196;6.204;2023-11-18T07:29:12;17.60;;;12.98;;
49131;SDS011;35149;51.196;6.204;2023-11-18T07:31:39;21.70;;;13.45;;
49131;SDS011;35149;51.196;6.204;2023-11-18T07:34:06;20.27;;;13.48;;
49131;SDS011;35149;51.196;6.204;2023-11-18T07:36:33;18.77;;;12.27;;
49131;SDS011;35149;51.196;6.204;2023-11-18T07:39:00;23.70;;;12.75;;
49131;SDS011;35149;51.196;6.204;2023-11-18T07:41:32;20.50;;;12.30;;
49131;SDS011;35149;51.196;6.204;2023-11-18T07:43:59;18.77;;;11.90;;
49131;SDS011;35149;51.196;6.204;2023-11-18T07:46:27;17.52;;;11.95;;
49131;SDS011;35149;51.196;6.204;2023-11-18T07:48:57;16.27;;;11.82;;
49131;SDS011;35149;51.196;6.204;2023-11-18T07:51:24;14.45;;;11.27;;
49131;SDS011;35149;51.196;6.204;2023-11-18T07:53:51;18.27;;;12.52;;
49131;SDS011;35149;51.196;6.204;2023-11-18T07:56:19;17.95;;;10.98;;
49131;SDS011;35149;51.196;6.204;2023-11-18T07:58:48;14.98;;;11.45;;
49131;SDS011;35149;51.196;6.204;2023-11-18T08:01:15;13.90;;;10.98;;
49131;SDS011;35149;51.196;6.204;2023-11-18T08:03:45;16.27;;;11.02;;
49131;SDS011;35149;51.196;6.204;2023-11-18T08:06:12;16.35;;;10.95;;
49131;SDS011;35149;51.196;6.204;2023-11-18T08:08:39;15.30;;;10.38;;
49131;SDS011;35149;51.196;6.204;2023-11-18T08:11:07;17.75;;;11.30;;
49131;SDS011;35149;51.196;6.204;2023-11-18T08:13:36;14.95;;;10.32;;
49131;SDS011;35149;51.196;6.204;2023-11-18T08:16:03;15.07;;;10.93;;
49131;SDS011;35149;51.196;6.204;2023-11-18T08:18:30;12.98;;;10.68;;
49131;SDS011;35149;51.196;6.204;2023-11-18T08:20:57;16.02;;;10.82;;
49131;SDS011;35149;51.196;6.204;2023-11-18T08:23:26;14.90;;;10.93;;
49131;SDS011;35149;51.196;6.204;2023-11-18T08:25:54;12.43;;;10.25;;
49131;SDS011;35149;51.196;6.204;2023-11-18T08:28:21;15.88;;;10.82;;
49131;SDS011;35149;51.196;6.204;2023-11-18T08:30:48;13.05;;;9.32;;
49131;SDS011;35149;51.196;6.204;2023-11-18T08:33:19;13.85;;;11.32;;
49131;SDS011;35149;51.196;6.204;2023-11-18T08:35:48;15.15;;;11.05;;
49131;SDS011;35149;51.196;6.204;2023-11-18T08:38:15;15.45;;;10.40;;
49131;SDS011;35149;51.196;6.204;2023-11-18T08:40:42;11.98;;;10.18;;
49131;SDS011;35149;51.196;6.204;2023-11-18T08:43:09;14.63;;;10.98;;
49131;SDS011;35149;51.196;6.204;2023-11-18T08:45:37;14.93;;;9.40;;
49131;SDS011;35149;51.196;6.204;2023-11-18T08:48:04;15.35;;;10.23;;
49131;SDS011;35149;51.196;6.204;2023-11-18T08:50:35;13.35;;;10.38;;
49131;SDS011;35149;51.196;6.204;2023-11-18T08:53:05;12.50;;;9.68;;
49131;SDS011;35149;51.196;6.204;2023-11-18T08:55:35;14.85;;;10.63;;
49131;SDS011;35149;51.196;6.204;2023-11-18T08:58:07;17.23;;;11.00;;
49131;SDS011;35149;51.196;6.204;2023-11-18T09:00:47;15.55;;;10.10;;
49131;SDS011;35149;51.196;6.204;2023-11-18T09:03:19;13.23;;;9.38;;
49131;SDS011;35149;51.196;6.204;2023-11-18T09:06:04;14.23;;;10.38;;
49131;SDS011;35149;51.196;6.204;2023-11-18T09:08:36;16.58;;;10.63;;
49131;SDS011;35149;51.196;6.204;2023-11-18T09:11:09;13.40;;;9.27;;
49131;SDS011;35149;51.196;6.204;2023-11-18T09:13:39;12.38;;;8.98;;
49131;SDS011;35149;51.196;6.204;2023-11-18T09:16:07;14.43;;;9.10;;
49131;SDS011;35149;51.196;6.204;2023-11-18T09:18:36;14.43;;;9.25;;
49131;SDS011;35149;51.196;6.204;2023-11-18T09:21:09;16.70;;;8.75;;
49131;SDS011;35149;51.196;6.204;2023-11-18T09:23:41;11.45;;;8.68;;
49131;SDS011;35149;51.196;6.204;2023-11-18T09:26:09;13.35;;;8.85;;
49131;SDS011;35149;51.196;6.204;2023-11-18T09:28:37;11.80;;;8.13;;
49131;SDS011;35149;51.196;6.204;2023-11-18T09:31:04;13.30;;;8.80;;
49131;SDS011;35149;51.196;6.204;2023-11-18T09:33:32;11.95;;;8.40;;
49131;SDS011;35149;51.196;6.204;2023-11-18T09:36:01;12.50;;;8.25;;
49131;SDS011;35149;51.196;6.204;2023-11-18T09:38:30;8.38;;;7.13;;
49131;SDS011;35149;51.196;6.204;2023-11-18T09:40:59;10.15;;;7.50;;
49131;SDS011;35149;51.196;6.204;2023-11-18T09:43:31;8.52;;;7.40;;
49131;SDS011;35149;51.196;6.204;2023-11-18T09:46:15;9.45;;;6.85;;
49131;SDS011;35149;51.196;6.204;2023-11-18T09:48:46;8.63;;;7.30;;
49131;SDS011;35149;51.196;6.204;2023-11-18T09:51:26;10.32;;;6.00;;
49131;SDS011;35149;51.196;6.204;2023-11-18T09:53:59;9.02;;;7.00;;
49131;SDS011;35149;51.196;6.204;2023-11-18T09:59:42;8.82;;;5.97;;
49131;SDS011;35149;51.196;6.204;2023-11-18T10:02:24;8.15;;;6.40;;
49131;SDS011;35149;51.196;6.204;2023-11-18T10:04:51;8.45;;;6.10;;
49131;SDS011;35149;51.196;6.204;2023-11-18T10:07:24;10.48;;;6.70;;
49131;SDS011;35149;51.196;6.204;2023-11-18T10:09:58;7.80;;;5.85;;
49131;SDS011;35149;51.196;6.204;2023-11-18T10:12:25;9.75;;;6.30;;
49131;SDS011;35149;51.196;6.204;2023-11-18T10:14:52;8.75;;;6.25;;
49131;SDS011;35149;51.196;6.204;2023-11-18T10:17:20;6.80;;;6.00;;
49131;SDS011;35149;51.196;6.204;2023-11-18T10:22:38;6.30;;;5.00;;
49131;SDS011;35149;51.196;6.204;2023-11-18T10:25:06;8.48;;;6.18;;
49131;SDS011;35149;51.196;6.204;2023-11-18T10:27:33;12.10;;;5.10;;
49131;SDS011;35149;51.196;6.204;2023-11-18T10:30:04;9.52;;;5.13;;
49131;SDS011;35149;51.196;6.204;2023-11-18T10:32:59;6.15;;;4.65;;
49131;SDS011;35149;51.196;6.204;2023-11-18T10:35:33;6.25;;;5.00;;
49131;SDS011;35149;51.196;6.204;2023-11-18T10:38:03;7.28;;;5.40;;
49131;SDS011;35149;51.196;6.204;2023-11-18T10:40:33;8.55;;;4.85;;
49131;SDS011;35149;51.196;6.204;2023-11-18T10:43:03;7.10;;;4.57;;
49131;SDS011;35149;51.196;6.204;2023-11-18T10:45:36;7.38;;;5.03;;
49131;SDS011;35149;51.196;6.204;2023-11-18T10:48:11;5.50;;;3.60;;
49131;SDS011;35149;51.196;6.204;2023-11-18T10:50:43;4.75;;;3.67;;
49131;SDS011;35149;51.196;6.204;2023-11-18T10:53:13;6.57;;;3.78;;
49131;SDS011;35149;51.196;6.204;2023-11-18T10:55:42;5.88;;;3.83;;
49131;SDS011;35149;51.196;6.204;2023-11-18T10:58:10;5.03;;;3.58;;
49131;SDS011;35149;51.196;6.204;2023-11-18T11:00:55;5.65;;;3.20;;
49131;SDS011;35149;51.196;6.204;2023-11-18T11:03:26;6.15;;;2.97;;
49131;SDS011;35149;51.196;6.204;2023-11-18T11:05:59;6.25;;;3.72;;
49131;SDS011;35149;51.196;6.204;2023-11-18T11:08:33;8.52;;;3.17;;
49131;SDS011;35149;51.196;6.204;2023-11-18T11:11:07;7.72;;;2.95;;
49131;SDS011;35149;51.196;6.204;2023-11-18T11:13:35;3.72;;;2.78;;
49131;SDS011;35149;51.196;6.204;2023-11-18T11:16:03;4.75;;;2.75;;
49131;SDS011;35149;51.196;6.204;2023-11-18T11:18:33;6.63;;;3.10;;
49131;SDS011;35149;51.196;6.204;2023-11-18T11:21:14;6.32;;;2.70;;
49131;SDS011;35149;51.196;6.204;2023-11-18T11:23:50;6.10;;;2.88;;
49131;SDS011;35149;51.196;6.204;2023-11-18T11:29:30;6.70;;;3.10;;
49131;SDS011;35149;51.196;6.204;2023-11-18T11:32:16;4.28;;;2.47;;
49131;SDS011;35149;51.196;6.204;2023-11-18T11:34:56;6.30;;;2.88;;
49131;SDS011;35149;51.196;6.204;2023-11-18T11:37:31;4.35;;;2.45;;
49131;SDS011;35149;51.196;6.204;2023-11-18T11:40:00;6.70;;;2.38;;
49131;SDS011;35149;51.196;6.204;2023-11-18T11:42:35;6.07;;;2.85;;
49131;SDS011;35149;51.196;6.204;2023-11-18T11:45:02;4.05;;;2.08;;
49131;SDS011;35149;51.196;6.204;2023-11-18T11:47:29;5.25;;;2.55;;
49131;SDS011;35149;51.196;6.204;2023-11-18T11:50:07;3.38;;;2.30;;
49131;SDS011;35149;51.196;6.204;2023-11-18T11:52:46;4.43;;;1.90;;
49131;SDS011;35149;51.196;6.204;2023-11-18T11:55:26;4.13;;;2.05;;
49131;SDS011;35149;51.196;6.204;2023-11-18T11:57:59;3.90;;;1.85;;
49131;SDS011;35149;51.196;6.204;2023-11-18T12:00:27;2.95;;;1.65;;
49131;SDS011;35149;51.196;6.204;2023-11-18T12:03:00;2.15;;;1.60;;
49131;SDS011;35149;51.196;6.204;2023-11-18T12:05:31;3.53;;;2.10;;
49131;SDS011;35149;51.196;6.204;2023-11-18T12:08:00;2.35;;;1.38;;
49131;SDS011;35149;51.196;6.204;2023-11-18T12:10:27;2.35;;;1.40;;
49131;SDS011;35149;51.196;6.204;2023-11-18T12:13:09;4.10;;;1.63;;
49131;SDS011;35149;51.196;6.204;2023-11-18T12:15:53;3.60;;;1.70;;
49131;SDS011;35149;51.196;6.204;2023-11-18T12:18:21;4.18;;;1.30;;
49131;SDS011;35149;51.196;6.204;2023-11-18T12:20:48;2.08;;;1.20;;
49131;SDS011;35149;51.196;6.204;2023-11-18T12:23:20;1.93;;;1.10;;
49131;SDS011;35149;51.196;6.204;2023-11-18T12:25:52;1.70;;;1.17;;
49131;SDS011;35149;51.196;6.204;2023-11-18T12:28:30;3.30;;;1.50;;
49131;SDS011;35149;51.196;6.204;2023-11-18T12:31:01;1.98;;;0.88;;
49131;SDS011;35149;51.196;6.204;2023-11-18T12:48:13;2.55;;;1.67;;
49131;SDS011;35149;51.196;6.204;2023-11-18T12:50:41;2.30;;;1.35;;
49131;SDS011;35149;51.196;6.204;2023-11-18T12:53:10;3.22;;;1.45;;
49131;SDS011;35149;51.196;6.204;2023-11-18T12:55:40;2.10;;;1.50;;
49131;SDS011;35149;51.196;6.204;2023-11-18T12:58:08;3.67;;;1.35;;
49131;SDS011;35149;51.196;6.204;2023-11-18T13:00:39;2.90;;;1.40;;
49131;SDS011;35149;51.196;6.204;2023-11-18T13:03:11;2.50;;;1.40;;
49131;SDS011;35149;51.196;6.204;2023-11-18T13:05:41;3.75;;;1.80;;
49131;SDS011;35149;51.196;6.204;2023-11-18T13:08:09;3.53;;;1.60;;
49131;SDS011;35149;51.196;6.204;2023-11-18T13:10:36;2.97;;;1.75;;
49131;SDS011;35149;51.196;6.204;2023-11-18T13:13:03;1.95;;;1.50;;
49131;SDS011;35149;51.196;6.204;2023-11-18T13:15:31;3.20;;;1.30;;
49131;SDS011;35149;51.196;6.204;2023-11-18T13:17:58;4.22;;;1.42;;
49131;SDS011;35149;51.196;6.204;2023-11-18T13:20:26;3.20;;;1.38;;
49131;SDS011;35149;51.196;6.204;2023-11-18T13:22:53;3.70;;;1.33;;
49131;SDS011;35149;51.196;6.204;2023-11-18T13:25:22;3.05;;;1.38;;
49131;SDS011;35149;51.196;6.204;2023-11-18T13:27:49;1.65;;;1.17;;
49131;SDS011;35149;51.196;6.204;2023-11-18T13:30:17;2.45;;;1.33;;
49131;SDS011;35149;51.196;6.204;2023-11-18T13:32:46;2.30;;;1.48;;
49131;SDS011;35149;51.196;6.204;2023-11-18T13:35:16;1.70;;;1.55;;
49131;SDS011;35149;51.196;6.204;2023-11-18T13:37:48;4.35;;;2.10;;
49131;SDS011;35149;51.196;6.204;2023-11-18T13:40:16;3.33;;;1.50;;
49131;SDS011;35149;51.196;6.204;2023-11-18T13:42:45;1.55;;;1.38;;
49131;SDS011;35149;51.196;6.204;2023-11-18T13:45:13;3.35;;;1.90;;
49131;SDS011;35149;51.196;6.204;2023-11-18T13:48:01;3.65;;;2.00;;
49131;SDS011;35149;51.196;6.204;2023-11-18T13:50:28;4.68;;;1.52;;
49131;SDS011;35149;51.196;6.204;2023-11-18T13:52:55;4.25;;;1.52;;
49131;SDS011;35149;51.196;6.204;2023-11-18T13:55:22;2.15;;;1.70;;
49131;SDS011;35149;51.196;6.204;2023-11-18T13:57:54;3.40;;;1.67;;
49131;SDS011;35149;51.196;6.204;2023-11-18T14:00:24;3.55;;;2.17;;
49131;SDS011;35149;51.196;6.204;2023-11-18T14:02:58;3.40;;;1.60;;
49131;SDS011;35149;51.196;6.204;2023-11-18T14:05:32;4.05;;;1.95;;
49131;SDS011;35149;51.196;6.204;2023-11-18T14:07:59;3.55;;;1.88;;
49131;SDS011;35149;51.196;6.204;2023-11-18T14:10:26;5.03;;;1.40;;
49131;SDS011;35149;51.196;6.204;2023-11-18T14:13:01;3.20;;;1.50;;
49131;SDS011;35149;51.196;6.204;2023-11-18T14:15:29;1.40;;;1.13;;
49131;SDS011;35149;51.196;6.204;2023-11-18T14:17:56;2.65;;;1.58;;
49131;SDS011;35149;51.196;6.204;2023-11-18T14:20:24;2.15;;;1.02;;
49131;SDS011;35149;51.196;6.204;2023-11-18T14:22:50;2.80;;;1.27;;
49131;SDS011;35149;51.196;6.204;2023-11-18T14:25:21;2.65;;;1.27;;
49131;SDS011;35149;51.196;6.204;2023-11-18T14:27:50;4.10;;;1.20;;
49131;SDS011;35149;51.196;6.204;2023-11-18T14:30:17;1.95;;;0.80;;
49131;SDS011;35149;51.196;6.204;2023-11-18T14:32:45;1.40;;;1.00;;
49131;SDS011;35149;51.196;6.204;2023-11-18T14:35:15;0.93;;;0.85;;
49131;SDS011;35149;51.196;6.204;2023-11-18T14:37:44;2.65;;;1.08;;
49131;SDS011;35149;51.196;6.204;2023-11-18T14:40:14;2.30;;;1.10;;
49131;SDS011;35149;51.196;6.204;2023-11-18T14:42:42;2.08;;;0.98;;
49131;SDS011;35149;51.196;6.204;2023-11-18T14:45:10;3.95;;;1.17;;
49131;SDS011;35149;51.196;6.204;2023-11-18T14:47:39;1.80;;;1.00;;
49131;SDS011;35149;51.196;6.204;2023-11-18T14:50:06;1.33;;;1.23;;
49131;SDS011;35149;51.196;6.204;2023-11-18T14:52:43;2.53;;;1.90;;
49131;SDS011;35149;51.196;6.204;2023-11-18T14:55:11;1.98;;;1.60;;
49131;SDS011;35149;51.196;6.204;2023-11-18T14:57:41;3.85;;;2.72;;
49131;SDS011;35149;51.196;6.204;2023-11-18T15:00:11;2.15;;;1.70;;
49131;SDS011;35149;51.196;6.204;2023-11-18T15:02:53;2.40;;;1.70;;
49131;SDS011;35149;51.196;6.204;2023-11-18T15:05:26;2.47;;;1.42;;
49131;SDS011;35149;51.196;6.204;2023-11-18T15:07:54;4.13;;;3.22;;
49131;SDS011;35149;51.196;6.204;2023-11-18T15:10:22;3.58;;;3.15;;
49131;SDS011;35149;51.196;6.204;2023-11-18T15:12:51;5.63;;;4.95;;
49131;SDS011;35149;51.196;6.204;2023-11-18T15:15:24;3.78;;;3.38;;